createdAt,value
2023-05-21T00:00:17.987Z,15.00
2023-05-21T00:02:46.049Z,15.00
2023-05-21T00:05:17.154Z,15.00
2023-05-21T00:07:45.897Z,15.00
2023-05-21T00:10:14.161Z,15.00
2023-05-21T00:12:42.667Z,14.90
2023-05-21T00:15:11.895Z,14.80
2023-05-21T00:17:40.220Z,14.80
2023-05-21T00:20:10.107Z,14.90
2023-05-21T00:22:40.436Z,14.90
2023-05-21T00:25:09.060Z,14.90
2023-05-21T00:27:37.152Z,14.90
2023-05-21T00:30:05.792Z,14.80
2023-05-21T00:32:33.888Z,14.80
2023-05-21T00:35:01.877Z,14.80
2023-05-21T00:37:34.381Z,14.70
2023-05-21T00:40:04.888Z,14.80
2023-05-21T00:42:33.832Z,14.80
2023-05-21T00:45:03.741Z,14.80
2023-05-21T00:47:32.003Z,14.70
2023-05-21T00:50:00.487Z,14.70
2023-05-21T00:52:28.677Z,14.70
2023-05-21T00:54:56.852Z,14.70
2023-05-21T00:57:28.161Z,14.70
2023-05-21T00:59:56.382Z,14.60
2023-05-21T01:02:26.214Z,14.60
2023-05-21T01:04:56.381Z,14.60
2023-05-21T01:07:24.390Z,14.60
2023-05-21T01:09:54.208Z,14.60
2023-05-21T01:12:23.844Z,14.60
2023-05-21T01:14:54.317Z,14.60
2023-05-21T01:17:24.467Z,14.50
2023-05-21T01:19:54.727Z,14.60
2023-05-21T01:22:25.127Z,14.60
2023-05-21T01:24:55.685Z,14.60
2023-05-21T01:27:23.792Z,14.60
2023-05-21T01:29:51.913Z,14.60
2023-05-21T01:32:28.111Z,14.50
2023-05-21T01:35:01.912Z,14.50
2023-05-21T01:37:34.607Z,14.50
2023-05-21T01:40:09.865Z,14.50
2023-05-21T01:42:40.056Z,14.50
2023-05-21T01:45:09.591Z,14.50
2023-05-21T01:47:38.695Z,14.50
2023-05-21T01:50:07.828Z,14.50
2023-05-21T01:52:35.906Z,14.50
2023-05-21T01:55:05.819Z,14.50
2023-05-21T01:57:33.819Z,14.50
2023-05-21T02:00:02.112Z,14.50
2023-05-21T02:02:30.248Z,14.40
2023-05-21T02:04:58.282Z,14.30
2023-05-21T02:07:28.991Z,14.20
2023-05-21T02:09:57.096Z,14.10
2023-05-21T02:12:28.317Z,14.00
2023-05-21T02:14:58.501Z,14.10
2023-05-21T02:17:26.521Z,14.10
2023-05-21T02:19:54.550Z,14.20
2023-05-21T02:22:22.592Z,14.20
2023-05-21T02:24:50.580Z,14.30
2023-05-21T02:27:19.061Z,14.40
2023-05-21T02:29:48.412Z,14.40
2023-05-21T02:32:16.945Z,14.40
2023-05-21T02:34:47.351Z,14.50
2023-05-21T02:37:15.524Z,14.50
2023-05-21T02:39:43.490Z,14.40
2023-05-21T02:42:11.437Z,14.40
2023-05-21T02:44:39.430Z,14.50
2023-05-21T02:47:10.383Z,14.50
2023-05-21T02:49:38.379Z,14.50
2023-05-21T02:52:06.906Z,14.50
2023-05-21T02:54:34.919Z,14.50
2023-05-21T02:57:02.916Z,14.50
2023-05-21T02:59:30.932Z,14.50
2023-05-21T03:01:58.981Z,14.50
2023-05-21T03:04:29.127Z,14.50
2023-05-21T03:06:58.646Z,14.50
2023-05-21T03:09:26.632Z,14.50
2023-05-21T03:11:54.758Z,14.50
2023-05-21T03:14:23.103Z,14.50
2023-05-21T03:16:51.502Z,14.50
2023-05-21T03:19:20.914Z,14.50
2023-05-21T03:21:50.716Z,14.50
2023-05-21T03:24:18.764Z,14.50
2023-05-21T03:26:48.276Z,14.50
2023-05-21T03:29:16.410Z,14.50
2023-05-21T03:31:44.503Z,14.50
2023-05-21T03:34:12.519Z,14.50
2023-05-21T03:36:40.859Z,14.50
2023-05-21T03:39:10.168Z,14.40
2023-05-21T03:41:38.262Z,14.40
2023-05-21T03:44:06.567Z,14.40
2023-05-21T03:46:34.728Z,14.40
2023-05-21T03:49:02.772Z,14.40
2023-05-21T03:51:31.786Z,14.40
2023-05-21T03:54:00.212Z,14.40
2023-05-21T03:56:29.664Z,14.40
2023-05-21T03:58:57.627Z,14.40
2023-05-21T04:01:25.617Z,14.40
2023-05-21T04:03:53.733Z,14.40
2023-05-21T04:06:22.033Z,14.40
2023-05-21T04:08:50.091Z,14.40
2023-05-21T04:11:18.126Z,14.30
2023-05-21T04:13:48.306Z,14.30
2023-05-21T04:16:19.288Z,14.30
2023-05-21T04:18:48.025Z,14.30
2023-05-21T04:21:16.398Z,14.30
2023-05-21T04:23:44.365Z,14.30
2023-05-21T04:26:12.806Z,14.30
2023-05-21T04:28:42.105Z,14.40
2023-05-21T04:31:13.101Z,14.30
2023-05-21T04:33:42.291Z,14.30
2023-05-21T04:36:11.514Z,14.30
2023-05-21T04:38:41.986Z,14.30
2023-05-21T04:41:10.928Z,14.30
2023-05-21T04:43:39.050Z,14.40
2023-05-21T04:46:07.243Z,14.40
2023-05-21T04:48:36.574Z,14.40
2023-05-21T04:51:05.919Z,14.40
2023-05-21T04:53:35.872Z,14.50
2023-05-21T04:56:03.984Z,14.50
2023-05-21T04:58:32.963Z,14.50
2023-05-21T05:01:03.164Z,14.50
2023-05-21T05:03:31.575Z,14.60
2023-05-21T05:06:01.490Z,14.60
2023-05-21T05:08:29.480Z,14.70
2023-05-21T05:10:57.572Z,14.70
2023-05-21T05:13:26.181Z,14.70
2023-05-21T05:15:54.781Z,14.80
2023-05-21T05:18:22.943Z,14.80
2023-05-21T05:20:50.928Z,14.80
2023-05-21T05:23:20.561Z,14.80
2023-05-21T05:25:48.787Z,14.80
2023-05-21T05:28:16.793Z,14.80
2023-05-21T05:30:44.938Z,14.70
2023-05-21T05:33:13.697Z,14.80
2023-05-21T05:35:41.673Z,14.90
2023-05-21T05:38:09.995Z,14.90
2023-05-21T05:40:39.367Z,14.90
2023-05-21T05:43:07.957Z,15.00
2023-05-21T05:45:36.176Z,15.00
2023-05-21T05:48:04.599Z,15.00
2023-05-21T05:50:32.688Z,15.10
2023-05-21T05:53:00.727Z,15.10
2023-05-21T05:55:28.726Z,15.10
2023-05-21T05:57:58.053Z,15.00
2023-05-21T06:00:26.302Z,15.10
2023-05-21T06:02:54.351Z,15.00
2023-05-21T06:05:22.613Z,15.10
2023-05-21T06:07:50.683Z,15.10
2023-05-21T06:10:18.848Z,15.20
2023-05-21T06:12:46.852Z,15.20
2023-05-21T06:15:16.653Z,15.30
2023-05-21T06:17:44.707Z,15.30
2023-05-21T06:20:13.155Z,15.40
2023-05-21T06:22:41.162Z,15.40
2023-05-21T06:25:10.714Z,15.40
2023-05-21T06:27:38.971Z,15.40
2023-05-21T06:30:08.539Z,15.40
2023-05-21T06:32:38.107Z,15.50
2023-05-21T06:35:07.153Z,15.50
2023-05-21T06:37:35.117Z,15.60
2023-05-21T06:40:03.835Z,15.60
2023-05-21T06:42:31.807Z,15.60
2023-05-21T06:45:00.028Z,15.70
2023-05-21T06:47:28.154Z,15.70
2023-05-21T06:49:57.564Z,15.80
2023-05-21T06:52:26.682Z,15.90
2023-05-21T06:54:54.809Z,15.90
2023-05-21T06:57:22.780Z,15.90
2023-05-21T06:59:50.763Z,15.90
2023-05-21T07:02:18.816Z,16.00
2023-05-21T07:04:46.836Z,16.00
2023-05-21T07:07:16.257Z,16.10
2023-05-21T07:09:44.245Z,16.10
2023-05-21T07:12:12.227Z,16.10
2023-05-21T07:14:40.275Z,16.10
2023-05-21T07:17:08.309Z,16.20
2023-05-21T07:19:37.029Z,16.20
2023-05-21T07:22:06.147Z,16.20
2023-05-21T07:24:35.544Z,16.30
2023-05-21T07:27:11.335Z,16.20
2023-05-21T07:29:46.485Z,16.30
2023-05-21T07:32:14.561Z,16.30
2023-05-21T07:34:42.548Z,16.30
2023-05-21T07:37:10.713Z,16.30
2023-05-21T07:39:40.082Z,16.30
2023-05-21T07:42:08.059Z,16.30
2023-05-21T07:44:36.031Z,16.30
2023-05-21T07:47:04.236Z,16.30
2023-05-21T07:49:32.332Z,16.40
2023-05-21T07:52:00.399Z,16.40
2023-05-21T07:54:29.359Z,16.40
2023-05-21T07:56:58.778Z,16.40
2023-05-21T07:59:26.780Z,16.50
2023-05-21T08:01:54.808Z,16.50
2023-05-21T08:04:23.050Z,16.60
2023-05-21T08:06:51.200Z,16.60
2023-05-21T08:09:19.417Z,16.60
2023-05-21T08:11:47.597Z,16.60
2023-05-21T08:14:17.571Z,16.60
2023-05-21T08:16:46.333Z,16.70
2023-05-21T08:19:14.619Z,16.70
2023-05-21T08:21:42.625Z,16.80
2023-05-21T08:24:10.733Z,16.80
2023-05-21T08:26:38.739Z,16.80
2023-05-21T08:29:06.951Z,16.80
2023-05-21T08:31:36.520Z,16.90
2023-05-21T08:34:04.637Z,16.90
2023-05-21T08:36:33.009Z,17.00
2023-05-21T08:39:01.200Z,17.00
2023-05-21T08:41:32.026Z,17.10
2023-05-21T08:44:03.399Z,17.10
2023-05-21T08:46:34.862Z,17.20
2023-05-21T08:49:04.874Z,17.30
2023-05-21T08:51:33.011Z,17.30
2023-05-21T08:54:02.686Z,17.40
2023-05-21T08:56:33.250Z,17.50
2023-05-21T08:59:01.360Z,17.50
2023-05-21T09:01:29.752Z,17.60
2023-05-21T09:04:05.033Z,17.60
2023-05-21T09:06:38.493Z,17.70
2023-05-21T09:09:15.894Z,17.80
2023-05-21T09:11:43.888Z,17.80
2023-05-21T09:14:13.077Z,17.90
2023-05-21T09:16:41.524Z,17.90
2023-05-21T09:19:09.590Z,18.00
2023-05-21T09:21:40.888Z,18.00
2023-05-21T09:24:11.174Z,18.10
2023-05-21T09:26:41.994Z,18.20
2023-05-21T09:29:09.973Z,18.20
2023-05-21T09:31:38.108Z,18.20
2023-05-21T09:34:06.105Z,18.30
2023-05-21T09:36:34.714Z,18.30
2023-05-21T09:39:04.960Z,18.40
2023-05-21T09:41:33.628Z,18.40
2023-05-21T09:44:02.434Z,18.40
2023-05-21T09:46:39.500Z,18.50
2023-05-21T09:49:07.825Z,18.60
2023-05-21T09:51:40.149Z,18.60
2023-05-21T09:54:12.553Z,18.60
2023-05-21T09:56:41.271Z,18.70
2023-05-21T09:59:09.268Z,18.70
2023-05-21T10:01:38.838Z,18.80
2023-05-21T10:04:09.132Z,18.80
2023-05-21T10:06:43.137Z,18.90
2023-05-21T10:09:13.250Z,18.90
2023-05-21T10:11:43.974Z,19.00
2023-05-21T10:14:17.953Z,19.10
2023-05-21T10:16:50.417Z,19.20
2023-05-21T10:19:18.783Z,19.20
2023-05-21T10:21:47.363Z,19.20
2023-05-21T10:24:18.015Z,19.30
2023-05-21T10:26:47.120Z,19.40
2023-05-21T10:29:19.446Z,19.50
2023-05-21T10:31:49.851Z,19.60
2023-05-21T10:34:18.620Z,19.60
2023-05-21T10:36:50.052Z,19.70
2023-05-21T10:39:22.297Z,19.70
2023-05-21T10:41:59.205Z,19.70
2023-05-21T10:44:38.155Z,19.80
2023-05-21T10:47:35.864Z,19.80
2023-05-21T10:50:22.924Z,19.90
2023-05-21T10:53:03.157Z,19.90
2023-05-21T10:55:44.043Z,20.00
2023-05-21T10:58:32.298Z,20.00
2023-05-21T11:01:02.587Z,20.00
2023-05-21T11:03:32.080Z,20.10
2023-05-21T11:06:05.418Z,20.20
2023-05-21T11:08:36.226Z,20.20
2023-05-21T11:11:06.190Z,20.30
2023-05-21T11:13:48.833Z,20.30
2023-05-21T11:16:17.436Z,20.40
2023-05-21T11:19:02.230Z,20.40
2023-05-21T11:21:31.751Z,20.60
2023-05-21T11:24:08.424Z,20.60
2023-05-21T11:27:06.833Z,20.60
2023-05-21T11:29:41.339Z,20.70
2023-05-21T11:32:10.650Z,20.70
2023-05-21T11:34:40.431Z,20.60
2023-05-21T11:37:30.646Z,20.60
2023-05-21T11:40:16.849Z,20.60
2023-05-21T11:42:50.839Z,20.60
2023-05-21T11:45:20.252Z,20.70
2023-05-21T11:47:49.297Z,20.70
2023-05-21T11:50:17.810Z,20.80
2023-05-21T11:52:46.259Z,20.90
2023-05-21T11:55:15.717Z,21.00
2023-05-21T11:57:45.310Z,21.10
2023-05-21T12:00:19.155Z,21.10
2023-05-21T12:02:48.940Z,21.10
2023-05-21T12:05:17.173Z,21.10
2023-05-21T12:07:50.110Z,21.10
2023-05-21T12:10:21.548Z,21.10
2023-05-21T12:12:55.882Z,21.10
2023-05-21T12:15:27.594Z,21.20
2023-05-21T12:17:56.892Z,21.20
2023-05-21T12:20:28.281Z,21.20
2023-05-21T12:22:58.945Z,21.30
2023-05-21T12:25:27.422Z,21.30
2023-05-21T12:27:58.323Z,21.30
2023-05-21T12:30:28.112Z,21.30
2023-05-21T12:33:00.563Z,21.30
2023-05-21T12:35:28.735Z,21.30
2023-05-21T12:37:56.865Z,21.30
2023-05-21T12:40:37.209Z,21.30
2023-05-21T12:43:06.281Z,21.40
2023-05-21T12:45:37.153Z,21.40
2023-05-21T12:48:05.565Z,21.40
2023-05-21T12:50:35.841Z,21.50
2023-05-21T12:53:04.185Z,21.60
2023-05-21T12:55:32.987Z,21.50
2023-05-21T12:58:05.540Z,21.50
2023-05-21T13:00:35.619Z,21.50
2023-05-21T13:03:06.594Z,21.60
2023-05-21T13:05:35.140Z,21.70
2023-05-21T13:08:05.181Z,21.70
2023-05-21T13:10:33.276Z,21.70
2023-05-21T13:13:01.817Z,21.70
2023-05-21T13:15:29.861Z,21.70
2023-05-21T13:18:01.377Z,21.70
2023-05-21T13:20:29.894Z,21.70
2023-05-21T13:22:57.957Z,21.70
2023-05-21T13:25:28.986Z,21.60
2023-05-21T13:27:58.478Z,21.50
2023-05-21T13:30:26.608Z,21.40
2023-05-21T13:32:55.066Z,21.40
2023-05-21T13:35:24.612Z,21.30
2023-05-21T13:37:52.596Z,21.30
2023-05-21T13:40:20.782Z,21.30
2023-05-21T13:42:50.226Z,21.30
2023-05-21T13:45:21.304Z,21.30
2023-05-21T13:47:49.459Z,21.40
2023-05-21T13:50:17.813Z,21.30
2023-05-21T13:52:47.352Z,21.40
2023-05-21T13:55:16.784Z,21.30
2023-05-21T13:57:45.952Z,21.30
2023-05-21T14:00:16.098Z,21.30
2023-05-21T14:02:44.947Z,21.30
2023-05-21T14:05:13.637Z,21.40
2023-05-21T14:07:42.104Z,21.50
2023-05-21T14:10:12.345Z,21.70
2023-05-21T14:12:40.737Z,21.80
2023-05-21T14:15:09.878Z,21.80
2023-05-21T14:17:40.223Z,21.80
2023-05-21T14:20:09.827Z,21.80
2023-05-21T14:22:38.476Z,21.80
2023-05-21T14:25:07.258Z,21.70
2023-05-21T14:27:38.412Z,21.70
2023-05-21T14:30:07.673Z,21.80
2023-05-21T14:32:35.799Z,21.90
2023-05-21T14:35:04.954Z,22.60
2023-05-21T14:37:33.053Z,24.30
2023-05-21T14:40:01.115Z,26.00
2023-05-21T14:42:29.112Z,27.50
2023-05-21T14:44:58.911Z,28.30
2023-05-21T14:47:27.146Z,29.00
2023-05-21T14:49:55.184Z,29.80
2023-05-21T14:52:23.178Z,30.60
2023-05-21T14:54:51.171Z,31.10
2023-05-21T14:57:19.242Z,31.40
2023-05-21T14:59:47.244Z,31.60
2023-05-21T15:02:16.574Z,31.70
2023-05-21T15:04:44.758Z,31.50
2023-05-21T15:07:12.762Z,31.30
2023-05-21T15:09:40.713Z,31.50
2023-05-21T15:12:08.937Z,31.70
2023-05-21T15:14:36.901Z,31.90
2023-05-21T15:17:05.141Z,31.90
2023-05-21T15:19:34.524Z,31.80
2023-05-21T15:22:02.766Z,31.90
2023-05-21T15:24:30.841Z,31.80
2023-05-21T15:26:58.943Z,31.50
2023-05-21T15:29:26.937Z,31.20
2023-05-21T15:31:54.993Z,30.70
2023-05-21T15:34:23.021Z,30.10
2023-05-21T15:36:52.391Z,29.70
2023-05-21T15:39:20.365Z,29.20
2023-05-21T15:41:48.399Z,28.80
2023-05-21T15:44:16.471Z,28.30
2023-05-21T15:46:44.476Z,27.60
2023-05-21T15:49:12.532Z,26.90
2023-05-21T15:51:40.519Z,26.20
2023-05-21T15:54:09.866Z,25.70
2023-05-21T15:56:37.859Z,25.30
2023-05-21T15:59:05.946Z,24.90
2023-05-21T16:01:34.403Z,24.60
2023-05-21T16:04:02.974Z,24.40
2023-05-21T16:06:31.578Z,24.30
2023-05-21T16:09:00.404Z,24.20
2023-05-21T16:11:30.361Z,24.20
2023-05-21T16:13:58.386Z,24.10
2023-05-21T16:16:26.519Z,24.00
2023-05-21T16:18:55.081Z,23.90
2023-05-21T16:21:23.117Z,23.80
2023-05-21T16:23:51.308Z,23.70
2023-05-21T16:26:19.500Z,23.60
2023-05-21T16:28:48.856Z,23.50
2023-05-21T16:31:16.898Z,23.50
2023-05-21T16:33:44.938Z,23.40
2023-05-21T16:36:13.122Z,23.30
2023-05-21T16:38:41.139Z,23.30
2023-05-21T16:41:09.198Z,23.30
2023-05-21T16:43:37.276Z,23.20
2023-05-21T16:46:06.842Z,23.10
2023-05-21T16:48:37.356Z,23.10
2023-05-21T16:51:06.139Z,22.90
2023-05-21T16:53:34.225Z,22.80
2023-05-21T16:56:02.239Z,22.60
2023-05-21T16:58:30.235Z,22.40
2023-05-21T17:00:58.356Z,22.20
2023-05-21T17:03:28.824Z,22.10
2023-05-21T17:05:56.882Z,21.90
2023-05-21T17:08:24.866Z,21.90
2023-05-21T17:10:52.876Z,21.90
2023-05-21T17:13:23.036Z,21.80
2023-05-21T17:15:52.176Z,21.90
2023-05-21T17:18:20.273Z,21.90
2023-05-21T17:20:49.688Z,21.80
2023-05-21T17:23:17.733Z,21.80
2023-05-21T17:25:45.798Z,21.70
2023-05-21T17:28:13.828Z,21.60
2023-05-21T17:30:41.808Z,21.50
2023-05-21T17:33:10.572Z,21.40
2023-05-21T17:35:39.186Z,21.30
2023-05-21T17:38:08.864Z,21.20
2023-05-21T17:40:36.995Z,21.00
2023-05-21T17:43:07.208Z,20.90
2023-05-21T17:45:35.651Z,20.80
2023-05-21T17:48:04.000Z,20.80
2023-05-21T17:50:32.067Z,20.80
2023-05-21T17:53:00.860Z,20.80
2023-05-21T17:55:30.757Z,20.70
2023-05-21T17:57:58.790Z,20.70
2023-05-21T18:00:26.824Z,20.60
2023-05-21T18:02:54.932Z,20.60
2023-05-21T18:05:23.101Z,20.60
2023-05-21T18:07:51.175Z,20.50
2023-05-21T18:10:19.393Z,20.50
2023-05-21T18:12:48.909Z,20.40
2023-05-21T18:15:17.205Z,20.40
2023-05-21T18:17:45.521Z,20.50
2023-05-21T18:20:14.762Z,20.40
2023-05-21T18:22:42.883Z,20.20
2023-05-21T18:25:11.405Z,19.90
2023-05-21T18:27:39.413Z,19.90
2023-05-21T18:30:10.010Z,19.90
2023-05-21T18:32:39.402Z,19.90
2023-05-21T18:35:08.283Z,20.00
2023-05-21T18:37:37.302Z,20.00
2023-05-21T18:40:07.391Z,20.00
2023-05-21T18:42:35.966Z,19.90
2023-05-21T18:45:10.169Z,19.90
2023-05-21T18:47:40.232Z,19.80
2023-05-21T18:50:09.885Z,19.80
2023-05-21T18:52:37.880Z,19.80
2023-05-21T18:55:06.878Z,19.80
2023-05-21T18:57:35.581Z,19.70
2023-05-21T19:00:03.598Z,19.70
2023-05-21T19:02:33.154Z,19.60
2023-05-21T19:05:01.875Z,19.60
2023-05-21T19:07:30.052Z,19.50
2023-05-21T19:10:00.181Z,19.50
2023-05-21T19:12:31.432Z,19.50
2023-05-21T19:14:59.528Z,19.50
2023-05-21T19:17:27.863Z,19.40
2023-05-21T19:19:57.502Z,19.40
2023-05-21T19:22:26.086Z,19.40
2023-05-21T19:24:54.398Z,19.40
2023-05-21T19:27:22.814Z,19.40
2023-05-21T19:29:51.721Z,19.40
2023-05-21T19:32:20.761Z,19.40
2023-05-21T19:34:48.889Z,19.30
2023-05-21T19:37:18.287Z,19.30
2023-05-21T19:39:49.668Z,19.30
2023-05-21T19:42:18.641Z,19.30
2023-05-21T19:44:46.825Z,19.30
2023-05-21T19:47:15.050Z,19.20
2023-05-21T19:49:43.160Z,19.10
2023-05-21T19:52:12.127Z,19.00
2023-05-21T19:54:41.585Z,19.00
2023-05-21T19:57:12.345Z,19.00
2023-05-21T19:59:40.940Z,19.00
2023-05-21T20:02:15.225Z,19.00
2023-05-21T20:04:43.242Z,19.00
2023-05-21T20:07:11.321Z,18.90
2023-05-21T20:09:41.333Z,18.90
2023-05-21T20:12:10.032Z,18.90
2023-05-21T20:14:38.104Z,18.80
2023-05-21T20:17:07.235Z,18.80
2023-05-21T20:19:36.020Z,18.70
2023-05-21T20:22:04.201Z,18.70
2023-05-21T20:24:32.253Z,18.70
2023-05-21T20:27:02.233Z,18.60
2023-05-21T20:29:30.447Z,18.60
2023-05-21T20:31:58.477Z,18.50
2023-05-21T20:34:27.332Z,18.50
2023-05-21T20:36:58.029Z,18.40
2023-05-21T20:39:27.329Z,18.30
2023-05-21T20:41:56.112Z,18.30
2023-05-21T20:44:27.546Z,18.30
2023-05-21T20:46:55.787Z,18.30
2023-05-21T20:49:24.845Z,18.20
2023-05-21T20:51:53.182Z,18.20
2023-05-21T20:54:22.233Z,18.20
2023-05-21T20:56:50.941Z,18.20
2023-05-21T20:59:18.986Z,18.10
2023-05-21T21:01:48.486Z,18.10
2023-05-21T21:04:17.815Z,18.00
2023-05-21T21:06:47.020Z,18.00
2023-05-21T21:09:15.039Z,17.90
2023-05-21T21:11:43.049Z,17.90
2023-05-21T21:14:11.152Z,17.80
2023-05-21T21:16:39.192Z,17.80
2023-05-21T21:19:08.603Z,17.80
2023-05-21T21:21:36.785Z,17.70
2023-05-21T21:24:05.223Z,17.70
2023-05-21T21:26:33.185Z,17.70
2023-05-21T21:29:01.268Z,17.70
2023-05-21T21:31:31.355Z,17.70
2023-05-21T21:33:59.470Z,17.60
2023-05-21T21:36:29.521Z,17.60
2023-05-21T21:38:57.528Z,17.50
2023-05-21T21:41:25.912Z,17.50
2023-05-21T21:43:53.902Z,17.40
2023-05-21T21:46:22.094Z,17.40
2023-05-21T21:48:50.229Z,17.30
2023-05-21T21:51:18.324Z,17.30
2023-05-21T21:53:47.763Z,17.30
2023-05-21T21:56:16.357Z,17.30
2023-05-21T21:58:44.360Z,17.20
2023-05-21T22:01:12.392Z,17.20
2023-05-21T22:03:41.163Z,17.20
2023-05-21T22:06:09.360Z,17.20
2023-05-21T22:08:37.344Z,17.20
2023-05-21T22:11:07.119Z,17.20
2023-05-21T22:13:35.409Z,17.10
2023-05-21T22:16:03.647Z,17.10
2023-05-21T22:18:40.813Z,17.00
2023-05-21T22:21:10.922Z,17.00
2023-05-21T22:23:39.481Z,17.00
2023-05-21T22:26:08.888Z,16.90
2023-05-21T22:28:36.969Z,16.90
2023-05-21T22:31:05.031Z,16.90
2023-05-21T22:33:33.097Z,16.90
2023-05-21T22:36:01.262Z,16.90
2023-05-21T22:38:29.287Z,16.90
2023-05-21T22:40:57.565Z,16.90
2023-05-21T22:43:27.160Z,16.90
2023-05-21T22:45:55.257Z,16.90
2023-05-21T22:48:23.243Z,16.90
2023-05-21T22:50:53.630Z,16.90
2023-05-21T22:53:21.818Z,16.90
2023-05-21T22:55:50.151Z,16.80
2023-05-21T22:58:18.718Z,16.80
2023-05-21T23:00:48.430Z,16.80
2023-05-21T23:03:16.904Z,16.80
2023-05-21T23:05:45.568Z,16.80
2023-05-21T23:08:14.197Z,16.90
2023-05-21T23:10:42.277Z,16.90
2023-05-21T23:13:10.271Z,16.90
2023-05-21T23:15:39.043Z,16.90
2023-05-21T23:18:08.948Z,16.90
2023-05-21T23:20:37.449Z,16.90
2023-05-21T23:23:05.959Z,16.90
2023-05-21T23:25:35.256Z,16.80
2023-05-21T23:28:03.271Z,16.80
2023-05-21T23:30:31.346Z,16.80
2023-05-21T23:32:59.473Z,16.70
2023-05-21T23:35:28.938Z,16.70
2023-05-21T23:37:57.101Z,16.70
2023-05-21T23:40:25.141Z,16.70
2023-05-21T23:42:53.209Z,16.70
2023-05-21T23:45:21.439Z,16.70
2023-05-21T23:47:49.591Z,16.70
2023-05-21T23:50:17.701Z,16.70
2023-05-21T23:52:47.107Z,16.70
2023-05-21T23:55:15.301Z,16.70
2023-05-21T23:57:43.298Z,16.70
